| Date | Time | Temp. (oF) | Dew Point (oF) | Rel. Hum. (%) | Press. (in.) | Wind Dir. | Wind Speed (mph) | Hourly Rainfall (in.) |
|
|---|---|---|---|---|---|---|---|---|---|
| 1 | 12/12 | 00:00 | 35 | 27 | 73 | 29.85 | W | 7 | 0.00 |
| 2 | 12/11 | 23:00 | 35 | 27 | 74 | 29.82 | NW | 7 | 0.00 |
| 3 | 12/11 | 22:00 | 36 | 28 | 73 | 29.78 | W | 2 | 0.00 |
| 4 | 12/11 | 21:00 | 37 | 28 | 72 | 29.76 | WNW | 15 | 0.00 |
| 5 | 12/11 | 20:00 | 38 | 29 | 71 | 29.73 | WNW | 13 | 0.00 |
| 6 | 12/11 | 19:00 | 39 | 30 | 71 | 29.71 | WNW | 8 | 0.00 |
| 7 | 12/11 | 18:00 | 39 | 30 | 72 | 29.67 | W | 13 | 0.00 |
| 8 | 12/11 | 17:00 | 41 | 32 | 71 | 29.61 | WNW | 15 | 0.00 |
| 9 | 12/11 | 16:00 | 43 | 35 | 76 | 29.55 | WNW | 14 | 0.00 |
| 10 | 12/11 | 15:00 | 47 | 39 | 76 | 29.48 | WNW | 19 | 0.00 |
| 11 | 12/11 | 14:00 | 48 | 41 | 79 | 29.43 | W | 18 | 0.00 |
| 12 | 12/11 | 13:00 | 48 | 43 | 85 | 29.39 | WNW | 18 | 0.00 |
| 13 | 12/11 | 12:00 | 49 | 44 | 86 | 29.37 | NNE | 3 | 0.00 |
| 14 | 12/11 | 11:00 | 49 | 46 | 92 | 29.35 | WNW | 12 | 0.00 |
| 15 | 12/11 | 10:00 | 47 | 46 | 100 | 29.35 | NW | 9 | 0.00 |
| 16 | 12/11 | 09:00 | 47 | 46 | 100 | 29.34 | W | 16 | 0.05 |
| 17 | 12/11 | 08:00 | 48 | 48 | 100 | 29.31 | WNW | 8 | 0.10 |
| 18 | 12/11 | 07:00 | 53 | 53 | 100 | 29.28 | W | 11 | 0.26 |
| 19 | 12/11 | 06:00 | 55 | 54 | 100 | 29.27 | SSE | 5 | 0.10 |
| 20 | 12/11 | 05:00 | 56 | 55 | 100 | 29.26 | SSE | 12 | 0.05 |
| 21 | 12/11 | 04:00 | 54 | 54 | 100 | 29.30 | ESE | 18 | 0.14 |
| 22 | 12/11 | 03:00 | 54 | 54 | 100 | 29.41 | SSE | 11 | 0.07 |
| 23 | 12/11 | 02:00 | 53 | 53 | 100 | 29.45 | E | 17 | 0.07 |
| 24 | 12/11 | 01:00 | 52 | 51 | 100 | 29.50 | ESE | 18 | 0.01 |